createdAt,value
2018-06-17T00:02:06.259Z,16.30
2018-06-17T00:04:34.649Z,16.27
2018-06-17T00:07:03.073Z,17.47
2018-06-17T00:09:31.593Z,17.03
2018-06-17T00:12:00.053Z,15.53
2018-06-17T00:14:28.488Z,14.93
2018-06-17T00:16:57.141Z,14.33
2018-06-17T00:19:25.556Z,13.90
2018-06-17T00:21:53.964Z,13.10
2018-06-17T00:24:22.696Z,12.73
2018-06-17T00:26:51.472Z,9.00
2018-06-17T00:29:20.792Z,8.60
2018-06-17T00:31:49.320Z,9.90
2018-06-17T00:34:17.703Z,8.20
2018-06-17T00:36:46.979Z,9.37
2018-06-17T00:39:15.396Z,8.60
2018-06-17T00:41:43.787Z,8.30
2018-06-17T00:44:12.219Z,8.57
2018-06-17T00:46:42.053Z,7.97
2018-06-17T00:49:11.041Z,7.60
2018-06-17T00:51:39.493Z,6.83
2018-06-17T00:54:08.291Z,7.30
2018-06-17T00:56:36.705Z,6.50
2018-06-17T00:59:05.252Z,6.33
2018-06-17T01:01:33.843Z,7.23
2018-06-17T01:04:02.386Z,6.10
2018-06-17T01:06:30.869Z,5.93
2018-06-17T01:09:00.244Z,6.13
2018-06-17T01:11:29.769Z,5.53
2018-06-17T01:13:58.394Z,6.87
2018-06-17T01:16:27.696Z,6.43
2018-06-17T01:18:56.786Z,6.60
2018-06-17T01:21:25.201Z,7.10
2018-06-17T01:23:53.579Z,6.57
2018-06-17T01:26:21.963Z,7.07
2018-06-17T01:28:50.361Z,7.10
2018-06-17T01:31:18.752Z,6.30
2018-06-17T01:33:47.114Z,7.63
2018-06-17T01:36:15.550Z,8.43
2018-06-17T01:38:44.910Z,9.00
2018-06-17T01:41:13.315Z,10.83
2018-06-17T01:43:41.743Z,10.83
2018-06-17T01:46:10.170Z,9.70
2018-06-17T01:48:38.681Z,10.17
2018-06-17T01:51:08.302Z,10.47
2018-06-17T01:53:36.640Z,10.77
2018-06-17T01:56:05.059Z,10.13
2018-06-17T01:58:34.353Z,9.73
2018-06-17T02:01:02.802Z,9.10
2018-06-17T02:03:36.372Z,8.20
2018-06-17T02:08:12.376Z,7.60
2018-06-17T02:10:46.028Z,7.30
2018-06-17T02:13:14.467Z,8.33
2018-06-17T02:15:42.880Z,7.60
2018-06-17T02:18:11.315Z,7.67
2018-06-17T02:20:39.749Z,7.80
2018-06-17T02:23:08.140Z,7.80
2018-06-17T02:25:36.519Z,8.23
2018-06-17T02:28:04.967Z,7.33
2018-06-17T02:30:33.402Z,7.43
2018-06-17T02:33:01.897Z,7.43
2018-06-17T02:35:30.962Z,6.53
2018-06-17T02:37:59.359Z,6.87
2018-06-17T02:40:27.824Z,6.57
2018-06-17T02:42:56.235Z,6.80
2018-06-17T02:45:30.345Z,6.40
2018-06-17T02:48:03.994Z,7.60
2018-06-17T02:50:37.874Z,7.43
2018-06-17T02:53:11.343Z,6.73
2018-06-17T02:55:39.776Z,7.03
2018-06-17T02:58:08.224Z,6.80
2018-06-17T03:00:37.225Z,6.50
2018-06-17T03:03:05.863Z,7.10
2018-06-17T03:05:34.573Z,6.70
2018-06-17T03:08:03.741Z,6.97
2018-06-17T03:10:32.109Z,7.13
2018-06-17T03:13:00.495Z,6.87
2018-06-17T03:15:28.921Z,7.20
2018-06-17T03:17:57.345Z,7.40
2018-06-17T03:20:25.751Z,7.67
2018-06-17T03:22:54.174Z,7.07
2018-06-17T03:25:27.664Z,8.00
2018-06-17T03:28:02.103Z,7.37
2018-06-17T03:30:35.676Z,7.83
2018-06-17T03:33:09.477Z,8.20
2018-06-17T03:36:15.139Z,6.80
2018-06-17T03:38:43.637Z,7.40
2018-06-17T03:41:12.812Z,7.17
2018-06-17T03:43:42.089Z,7.30
2018-06-17T03:46:10.853Z,8.93
2018-06-17T03:48:39.404Z,9.07
2018-06-17T03:51:07.980Z,8.20
2018-06-17T03:53:36.424Z,7.10
2018-06-17T03:56:04.812Z,7.00
2018-06-17T03:58:33.199Z,7.80
2018-06-17T04:01:01.614Z,7.70
2018-06-17T04:03:29.992Z,8.20
2018-06-17T04:05:58.428Z,7.80
2018-06-17T04:08:26.828Z,8.40
2018-06-17T04:10:55.695Z,7.87
2018-06-17T04:13:24.124Z,7.47
2018-06-17T04:15:52.530Z,9.27
2018-06-17T04:18:20.958Z,7.90
2018-06-17T04:20:49.383Z,7.70
2018-06-17T04:23:18.444Z,7.47
2018-06-17T04:25:46.814Z,7.60
2018-06-17T04:28:16.188Z,7.87
2018-06-17T04:30:44.580Z,7.90
2018-06-17T04:33:13.008Z,7.80
2018-06-17T04:35:42.383Z,6.90
2018-06-17T04:38:10.836Z,7.10
2018-06-17T04:40:39.315Z,7.30
2018-06-17T04:43:07.677Z,6.13
2018-06-17T04:45:36.084Z,6.13
2018-06-17T04:48:04.486Z,5.43
2018-06-17T04:50:32.876Z,6.27
2018-06-17T04:53:01.264Z,5.47
2018-06-17T04:55:29.678Z,5.90
2018-06-17T04:57:58.115Z,4.90
2018-06-17T05:00:26.543Z,5.60
2018-06-17T05:02:54.940Z,5.53
2018-06-17T05:05:23.352Z,5.30
2018-06-17T05:07:51.792Z,4.90
2018-06-17T05:10:20.161Z,5.43
2018-06-17T05:12:48.602Z,4.17
2018-06-17T05:15:16.994Z,4.40
2018-06-17T05:17:45.392Z,6.53
2018-06-17T05:20:13.861Z,4.83
2018-06-17T05:22:42.254Z,4.20
2018-06-17T05:25:10.654Z,4.50
2018-06-17T05:27:39.274Z,4.60
2018-06-17T05:30:07.676Z,4.70
2018-06-17T05:32:36.095Z,4.33
2018-06-17T05:35:04.579Z,4.77
2018-06-17T05:37:32.964Z,4.50
2018-06-17T05:40:01.392Z,4.47
2018-06-17T05:42:29.817Z,4.17
2018-06-17T05:44:58.234Z,3.70
2018-06-17T05:47:26.653Z,3.70
2018-06-17T05:49:54.981Z,3.37
2018-06-17T05:52:23.413Z,3.37
2018-06-17T05:54:51.794Z,3.20
2018-06-17T05:57:20.229Z,3.93
2018-06-17T05:59:48.612Z,3.17
2018-06-17T06:02:17.002Z,3.33
2018-06-17T06:04:45.512Z,3.80
2018-06-17T06:07:13.996Z,3.50
2018-06-17T06:09:42.426Z,3.53
2018-06-17T06:12:10.998Z,3.03
2018-06-17T06:14:40.029Z,4.13
2018-06-17T06:17:08.453Z,3.40
2018-06-17T06:19:36.828Z,3.57
2018-06-17T06:22:05.224Z,3.30
2018-06-17T06:24:33.754Z,2.97
2018-06-17T06:27:02.178Z,2.70
2018-06-17T06:29:31.864Z,2.70
2018-06-17T06:32:00.238Z,2.67
2018-06-17T06:34:28.636Z,3.10
2018-06-17T06:36:57.072Z,3.03
2018-06-17T06:39:26.114Z,3.10
2018-06-17T06:41:54.558Z,2.97
2018-06-17T06:44:22.943Z,2.87
2018-06-17T06:46:51.368Z,2.90
2018-06-17T06:49:19.778Z,3.27
2018-06-17T06:51:48.174Z,3.17
2018-06-17T06:54:16.589Z,3.73
2018-06-17T06:56:45.100Z,3.00
2018-06-17T06:59:14.693Z,3.23
2018-06-17T07:01:54.235Z,2.73
2018-06-17T07:04:33.681Z,2.97
2018-06-17T07:07:13.252Z,3.03
2018-06-17T07:09:52.865Z,3.60
2018-06-17T07:12:21.290Z,3.50
2018-06-17T07:14:49.669Z,3.63
2018-06-17T07:17:29.377Z,3.23
2018-06-17T07:19:57.769Z,3.10
2018-06-17T07:22:26.198Z,4.90
2018-06-17T07:24:54.594Z,4.43
2018-06-17T07:27:34.160Z,4.00
2018-06-17T07:30:02.578Z,3.40
2018-06-17T07:32:31.042Z,3.43
2018-06-17T07:34:59.453Z,3.37
2018-06-17T07:37:27.931Z,4.30
2018-06-17T07:40:46.467Z,3.40
2018-06-17T07:43:14.929Z,3.07
2018-06-17T07:45:43.588Z,3.90
2018-06-17T07:48:13.445Z,3.50
2018-06-17T07:50:52.901Z,3.70
2018-06-17T07:53:21.403Z,3.53
2018-06-17T07:55:49.804Z,3.57
2018-06-17T07:58:18.197Z,3.70
2018-06-17T08:00:46.623Z,4.07
2018-06-17T08:03:15.041Z,3.67
2018-06-17T08:05:44.188Z,3.17
2018-06-17T08:08:12.552Z,3.90
2018-06-17T08:10:41.056Z,4.30
2018-06-17T08:13:09.811Z,3.33
2018-06-17T08:15:38.188Z,2.90
2018-06-17T08:18:06.608Z,2.90
2018-06-17T08:20:35.047Z,3.03
2018-06-17T08:23:03.452Z,3.40
2018-06-17T08:25:31.816Z,3.03
2018-06-17T08:28:00.193Z,2.93
2018-06-17T08:30:28.612Z,2.97
2018-06-17T08:32:57.044Z,3.27
2018-06-17T08:35:25.469Z,2.97
2018-06-17T08:37:53.849Z,3.50
2018-06-17T08:40:22.211Z,3.27
2018-06-17T08:42:50.595Z,3.50
2018-06-17T08:45:20.109Z,3.80
2018-06-17T08:47:48.495Z,3.13
2018-06-17T08:50:16.871Z,3.23
2018-06-17T08:52:46.633Z,3.33
2018-06-17T08:55:15.008Z,3.57
2018-06-17T08:57:43.528Z,4.40
2018-06-17T09:00:12.870Z,3.83
2018-06-17T09:02:41.237Z,5.13
2018-06-17T09:05:09.622Z,4.43
2018-06-17T09:07:38.032Z,2.83
2018-06-17T09:10:06.456Z,3.97
2018-06-17T09:12:34.920Z,3.97
2018-06-17T09:15:03.362Z,3.90
2018-06-17T09:17:32.274Z,4.00
2018-06-17T09:20:01.513Z,3.33
2018-06-17T09:22:29.954Z,3.47
2018-06-17T09:24:58.412Z,3.33
2018-06-17T09:27:27.546Z,3.30
2018-06-17T09:29:56.214Z,3.30
2018-06-17T09:32:24.699Z,2.90
2018-06-17T09:34:54.144Z,3.50
2018-06-17T09:37:22.561Z,3.83
2018-06-17T09:39:50.988Z,2.90
2018-06-17T09:42:19.360Z,3.40
2018-06-17T09:44:49.608Z,3.03
2018-06-17T09:47:18.585Z,2.63
2018-06-17T09:49:47.964Z,3.30
2018-06-17T09:52:16.604Z,2.93
2018-06-17T09:54:45.047Z,3.40
2018-06-17T09:57:13.508Z,3.53
2018-06-17T09:59:41.939Z,3.70
2018-06-17T10:02:10.343Z,4.07
2018-06-17T10:04:39.620Z,3.50
2018-06-17T10:07:07.971Z,2.97
2018-06-17T10:09:45.725Z,3.07
2018-06-17T10:12:14.174Z,3.67
2018-06-17T10:14:42.884Z,3.63
2018-06-17T10:17:11.340Z,3.40
2018-06-17T10:19:39.723Z,4.70
2018-06-17T10:22:08.184Z,3.37
2018-06-17T10:24:37.163Z,2.73
2018-06-17T10:27:05.569Z,3.50
2018-06-17T10:29:33.989Z,2.63
2018-06-17T10:32:02.382Z,3.17
2018-06-17T10:34:30.833Z,3.30
2018-06-17T10:36:59.220Z,2.80
2018-06-17T10:39:27.619Z,2.33
2018-06-17T10:41:56.006Z,2.93
2018-06-17T10:44:24.493Z,2.57
2018-06-17T10:46:53.487Z,3.07
2018-06-17T10:49:21.880Z,2.30
2018-06-17T10:51:50.502Z,2.50
2018-06-17T10:54:18.888Z,2.60
2018-06-17T10:56:47.307Z,2.23
2018-06-17T10:59:15.761Z,3.70
2018-06-17T11:01:44.195Z,4.10
2018-06-17T11:04:12.822Z,2.67
2018-06-17T11:06:41.992Z,2.70
2018-06-17T11:09:10.365Z,2.37
2018-06-17T11:11:38.793Z,2.60
2018-06-17T11:14:07.232Z,3.03
2018-06-17T11:16:35.621Z,3.37
2018-06-17T11:19:04.038Z,2.63
2018-06-17T11:21:32.472Z,3.40
2018-06-17T11:24:01.116Z,2.37
2018-06-17T11:26:29.736Z,2.53
2018-06-17T11:28:58.083Z,3.37
2018-06-17T11:31:26.500Z,2.33
2018-06-17T11:33:55.584Z,2.90
2018-06-17T11:36:23.987Z,2.63
2018-06-17T11:38:52.668Z,3.53
2018-06-17T11:41:21.061Z,3.17
2018-06-17T11:43:49.559Z,2.60
2018-06-17T11:46:18.153Z,2.37
2018-06-17T11:48:46.786Z,2.93
2018-06-17T11:51:15.216Z,2.27
2018-06-17T11:53:43.751Z,2.77
2018-06-17T11:56:12.183Z,2.50
2018-06-17T11:58:40.622Z,2.30
2018-06-17T12:01:09.094Z,2.60
2018-06-17T12:03:37.656Z,2.70
2018-06-17T12:06:06.143Z,2.30
2018-06-17T12:08:34.594Z,1.90
2018-06-17T12:11:02.960Z,2.23
2018-06-17T12:13:31.496Z,1.60
2018-06-17T12:16:00.588Z,1.73
2018-06-17T12:18:29.609Z,2.10
2018-06-17T12:20:58.020Z,2.70
2018-06-17T12:23:26.440Z,1.83
2018-06-17T12:25:54.995Z,2.57
2018-06-17T12:28:23.523Z,2.20
2018-06-17T12:30:51.973Z,2.40
2018-06-17T12:33:20.500Z,2.23
2018-06-17T12:35:48.897Z,2.07
2018-06-17T12:38:17.312Z,2.10
2018-06-17T12:40:45.750Z,1.93
2018-06-17T12:43:14.376Z,2.20
2018-06-17T12:45:44.032Z,2.23
2018-06-17T12:48:12.413Z,2.17
2018-06-17T12:50:40.801Z,1.90
2018-06-17T12:53:09.962Z,2.20
2018-06-17T12:55:38.432Z,2.17
2018-06-17T12:58:07.054Z,2.13
2018-06-17T13:00:35.443Z,2.40
2018-06-17T13:03:04.035Z,1.93
2018-06-17T13:05:32.521Z,2.10
2018-06-17T13:08:00.919Z,2.40
2018-06-17T13:10:31.424Z,2.30
2018-06-17T13:12:59.805Z,2.60
2018-06-17T13:15:28.213Z,2.20
2018-06-17T13:17:56.840Z,1.80
2018-06-17T13:20:25.249Z,2.17
2018-06-17T13:22:53.748Z,2.37
2018-06-17T13:25:22.145Z,2.10
2018-06-17T13:27:50.591Z,2.03
2018-06-17T13:30:18.975Z,2.00
2018-06-17T13:32:47.372Z,2.33
2018-06-17T13:35:15.808Z,1.77
2018-06-17T13:37:44.230Z,2.37
2018-06-17T13:40:13.074Z,1.90
2018-06-17T13:42:42.167Z,4.20
2018-06-17T13:45:10.724Z,2.57
2018-06-17T13:47:39.350Z,4.20
2018-06-17T13:50:07.748Z,11.13
2018-06-17T13:52:37.048Z,3.30
2018-06-17T13:55:05.503Z,5.57
2018-06-17T13:57:33.935Z,11.97
2018-06-17T14:00:02.392Z,2.73
2018-06-17T14:02:30.804Z,3.13
2018-06-17T14:04:59.461Z,17.00
2018-06-17T14:07:27.985Z,11.77
2018-06-17T14:09:56.667Z,4.13
2018-06-17T14:12:25.101Z,10.77
2018-06-17T14:14:53.529Z,3.60
2018-06-17T14:17:21.933Z,2.93
2018-06-17T14:19:50.388Z,2.90
2018-06-17T14:22:19.508Z,2.57
2018-06-17T14:24:47.935Z,2.17
2018-06-17T14:27:16.493Z,2.13
2018-06-17T14:29:44.849Z,1.90
2018-06-17T14:32:14.395Z,2.07
2018-06-17T14:34:43.043Z,2.03
2018-06-17T14:37:11.576Z,1.80
2018-06-17T14:39:40.024Z,2.30
2018-06-17T14:42:13.648Z,2.20
2018-06-17T14:44:47.271Z,1.83
2018-06-17T14:47:21.500Z,2.60
2018-06-17T14:49:55.347Z,2.00
2018-06-17T14:52:30.783Z,2.00
2018-06-17T14:54:59.288Z,2.87
2018-06-17T14:57:28.574Z,2.63
2018-06-17T14:59:57.106Z,2.73
2018-06-17T15:02:25.560Z,2.07
2018-06-17T15:04:53.996Z,2.33
2018-06-17T15:07:22.398Z,2.53
2018-06-17T15:09:50.760Z,2.13
2018-06-17T15:12:19.171Z,1.83
2018-06-17T15:14:47.615Z,1.40
2018-06-17T15:17:16.101Z,1.60
2018-06-17T15:19:45.467Z,1.97
2018-06-17T15:22:13.881Z,2.13
2018-06-17T15:24:42.313Z,1.93
2018-06-17T15:27:10.749Z,2.23
2018-06-17T15:29:39.132Z,1.90
2018-06-17T15:32:12.940Z,2.00
2018-06-17T15:34:46.685Z,1.90
2018-06-17T15:37:20.313Z,2.20
2018-06-17T15:39:50.750Z,1.70
2018-06-17T15:42:19.196Z,3.50
2018-06-17T15:44:47.564Z,6.50
2018-06-17T15:47:15.988Z,4.97
2018-06-17T15:49:46.465Z,2.03
2018-06-17T15:52:14.895Z,7.70
2018-06-17T15:54:44.232Z,6.00
2018-06-17T15:57:13.681Z,2.40
2018-06-17T15:59:42.192Z,1.53
2018-06-17T16:02:10.617Z,2.13
2018-06-17T16:04:39.024Z,2.20
2018-06-17T16:07:07.412Z,2.60
2018-06-17T16:09:35.860Z,2.20
2018-06-17T16:12:09.659Z,2.27
2018-06-17T16:14:43.474Z,1.77
2018-06-17T16:17:17.208Z,2.40
2018-06-17T16:19:50.651Z,1.83
2018-06-17T16:22:19.126Z,2.30
2018-06-17T16:24:48.580Z,1.97
2018-06-17T16:27:17.338Z,2.00
2018-06-17T16:29:45.785Z,1.90
2018-06-17T16:32:14.243Z,2.10
2018-06-17T16:34:42.701Z,2.00
2018-06-17T16:37:11.217Z,2.53
2018-06-17T16:39:40.136Z,2.10
2018-06-17T16:42:08.605Z,2.30
2018-06-17T16:44:37.066Z,1.90
2018-06-17T16:47:06.064Z,2.10
2018-06-17T16:49:34.578Z,2.70
2018-06-17T16:52:08.346Z,2.30
2018-06-17T16:54:42.004Z,2.30
2018-06-17T16:57:15.639Z,2.07
2018-06-17T16:59:49.477Z,2.10
2018-06-17T17:02:18.925Z,2.17
2018-06-17T17:04:47.273Z,2.20
2018-06-17T17:07:15.704Z,2.20
2018-06-17T17:09:44.125Z,3.17
2018-06-17T17:12:12.560Z,2.93
2018-06-17T17:14:41.016Z,2.27
2018-06-17T17:17:09.712Z,2.40
2018-06-17T17:19:38.353Z,2.83
2018-06-17T17:22:06.792Z,2.47
2018-06-17T17:24:35.194Z,1.90
2018-06-17T17:27:04.140Z,2.20
2018-06-17T17:29:32.598Z,2.70
2018-06-17T17:32:06.376Z,2.20
2018-06-17T17:34:40.116Z,2.27
2018-06-17T17:37:13.852Z,2.30
2018-06-17T17:39:47.532Z,2.57
2018-06-17T17:42:15.929Z,1.80
2018-06-17T17:44:49.815Z,2.60
2018-06-17T17:47:23.512Z,3.43
2018-06-17T17:49:52.434Z,2.47
2018-06-17T17:52:21.654Z,2.63
2018-06-17T17:54:50.195Z,2.50
2018-06-17T17:57:19.441Z,3.30
2018-06-17T17:59:48.460Z,2.50
2018-06-17T18:02:17.109Z,2.20
2018-06-17T18:04:46.161Z,2.23
2018-06-17T18:07:15.197Z,2.10
2018-06-17T18:09:43.627Z,2.00
2018-06-17T18:12:12.265Z,1.93
2018-06-17T18:14:40.672Z,2.27
2018-06-17T18:17:09.084Z,2.13
2018-06-17T18:19:37.456Z,2.00
2018-06-17T18:22:06.078Z,2.70
2018-06-17T18:24:34.543Z,1.80
2018-06-17T18:28:05.673Z,2.53
2018-06-17T18:30:39.537Z,2.30
2018-06-17T18:33:13.343Z,2.37
2018-06-17T18:35:46.941Z,2.60
2018-06-17T18:38:15.660Z,2.10
2018-06-17T18:40:44.531Z,1.83
2018-06-17T18:43:13.635Z,2.10
2018-06-17T18:45:42.160Z,2.13
2018-06-17T18:48:11.172Z,2.10
2018-06-17T18:50:40.471Z,2.30
2018-06-17T18:53:09.533Z,2.23
2018-06-17T18:55:37.914Z,1.93
2018-06-17T18:58:06.476Z,2.10
2018-06-17T19:00:34.949Z,2.90
2018-06-17T19:03:03.405Z,2.23
2018-06-17T19:05:31.837Z,2.23
2018-06-17T19:08:00.314Z,3.17
2018-06-17T19:10:34.280Z,2.43
2018-06-17T19:13:08.030Z,3.23
2018-06-17T19:15:41.812Z,2.80
2018-06-17T19:18:12.793Z,3.80
2018-06-17T19:20:42.127Z,2.30
2018-06-17T19:23:10.567Z,2.30
2018-06-17T19:25:39.021Z,2.63
2018-06-17T19:28:07.425Z,3.33
2018-06-17T19:30:35.857Z,4.30
2018-06-17T19:33:05.054Z,2.10
2018-06-17T19:35:34.720Z,2.13
2018-06-17T19:38:03.190Z,2.57
2018-06-17T19:40:31.607Z,2.27
2018-06-17T19:43:00.409Z,2.43
2018-06-17T19:45:29.001Z,3.00
2018-06-17T19:47:57.462Z,2.27
2018-06-17T19:50:31.148Z,2.60
2018-06-17T19:53:04.830Z,3.10
2018-06-17T19:55:38.917Z,2.57
2018-06-17T19:58:13.582Z,4.90
2018-06-17T20:00:43.856Z,3.67
2018-06-17T20:03:12.361Z,3.70
2018-06-17T20:05:40.989Z,2.43
2018-06-17T20:08:09.457Z,2.50
2018-06-17T20:10:38.217Z,2.50
2018-06-17T20:13:07.252Z,2.70
2018-06-17T20:15:35.885Z,3.00
2018-06-17T20:18:04.300Z,3.20
2018-06-17T20:20:32.866Z,3.50
2018-06-17T20:23:01.301Z,3.10
2018-06-17T20:25:30.217Z,2.73
2018-06-17T20:27:58.668Z,2.50
2018-06-17T20:30:27.068Z,3.17
2018-06-17T20:33:00.862Z,2.10
2018-06-17T20:35:34.536Z,2.90
2018-06-17T20:38:08.772Z,2.53
2018-06-17T20:40:42.747Z,2.47
2018-06-17T20:43:16.473Z,2.67
2018-06-17T20:45:45.036Z,3.57
2018-06-17T20:48:13.623Z,3.77
2018-06-17T20:50:42.039Z,2.90
2018-06-17T20:53:10.543Z,2.53
2018-06-17T20:55:38.979Z,2.87
2018-06-17T20:58:07.484Z,2.67
2018-06-17T21:00:35.990Z,2.73
2018-06-17T21:03:04.828Z,2.83
2018-06-17T21:05:33.266Z,2.20
2018-06-17T21:08:02.581Z,2.30
2018-06-17T21:10:32.289Z,2.80
2018-06-17T21:13:00.690Z,2.87
2018-06-17T21:15:29.100Z,2.80
2018-06-17T21:17:57.500Z,2.30
2018-06-17T21:20:31.128Z,2.93
2018-06-17T21:23:05.008Z,2.60
2018-06-17T21:25:38.447Z,2.60
2018-06-17T21:28:07.138Z,2.60
2018-06-17T21:30:35.524Z,2.90
2018-06-17T21:33:04.037Z,2.50
2018-06-17T21:35:32.420Z,3.27
2018-06-17T21:38:00.844Z,2.40
2018-06-17T21:40:29.260Z,2.87
2018-06-17T21:42:57.701Z,3.00
2018-06-17T21:45:26.125Z,3.00
2018-06-17T21:47:54.827Z,3.43
2018-06-17T21:50:23.237Z,3.60
2018-06-17T21:52:51.714Z,3.37
2018-06-17T21:55:20.181Z,2.73
2018-06-17T21:57:48.613Z,2.90
2018-06-17T22:00:17.093Z,2.77
2018-06-17T22:02:45.795Z,3.27
2018-06-17T22:05:14.513Z,2.73
2018-06-17T22:07:48.192Z,3.60
2018-06-17T22:10:21.804Z,5.00
2018-06-17T22:12:55.584Z,5.00
2018-06-17T22:15:29.045Z,3.90
2018-06-17T22:17:57.521Z,4.00
2018-06-17T22:20:25.912Z,3.13
2018-06-17T22:22:55.052Z,3.57
2018-06-17T22:25:23.511Z,2.93
2018-06-17T22:27:52.018Z,2.80
2018-06-17T22:30:20.416Z,3.30
2018-06-17T22:32:48.792Z,3.53
2018-06-17T22:35:17.209Z,2.80
2018-06-17T22:37:45.626Z,3.37
2018-06-17T22:40:14.117Z,2.70
2018-06-17T22:42:42.567Z,2.90
2018-06-17T22:45:10.980Z,3.30
2018-06-17T22:47:45.514Z,2.80
2018-06-17T22:50:14.147Z,2.50
2018-06-17T22:52:53.782Z,2.70
2018-06-17T22:55:22.202Z,2.60
2018-06-17T22:57:55.776Z,2.73
2018-06-17T23:00:30.355Z,2.30
2018-06-17T23:03:04.084Z,2.80
2018-06-17T23:05:37.649Z,3.20
2018-06-17T23:08:11.230Z,3.40
2018-06-17T23:10:39.625Z,2.50
2018-06-17T23:13:08.054Z,2.13
2018-06-17T23:15:36.469Z,2.70
2018-06-17T23:18:04.979Z,2.67
2018-06-17T23:20:33.402Z,2.83
2018-06-17T23:23:01.862Z,2.70
2018-06-17T23:25:31.445Z,2.70
2018-06-17T23:27:59.856Z,2.60
2018-06-17T23:30:29.185Z,3.10
2018-06-17T23:32:57.841Z,2.67
2018-06-17T23:35:26.342Z,2.80
2018-06-17T23:37:54.778Z,2.50
2018-06-17T23:40:23.305Z,2.63
2018-06-17T23:42:51.705Z,2.33
2018-06-17T23:45:20.962Z,2.33
2018-06-17T23:47:54.748Z,2.50
2018-06-17T23:50:28.563Z,2.40
2018-06-17T23:53:02.249Z,2.60
2018-06-17T23:55:36.061Z,2.47
2018-06-17T23:58:04.478Z,2.67
